sensor_id;sensor_type;location;lat;lon;timestamp;pressure;altitude;pressure_sealevel;temperature;humidity
43741;BME280;29352;48.708;9.290;2022-07-01T00:02:21;97819.63;;;9.17;55.68
43741;BME280;29352;48.708;9.290;2022-07-01T00:04:47;97820.50;;;8.40;56.78
43741;BME280;29352;48.708;9.290;2022-07-01T00:07:12;97824.56;;;8.79;55.19
43741;BME280;29352;48.708;9.290;2022-07-01T00:09:38;97843.09;;;9.42;53.89
43741;BME280;29352;48.708;9.290;2022-07-01T00:12:04;97862.91;;;9.11;54.80
43741;BME280;29352;48.708;9.290;2022-07-01T00:14:31;97855.59;;;9.27;54.27
43741;BME280;29352;48.708;9.290;2022-07-01T00:16:57;97866.16;;;8.67;55.23
43741;BME280;29352;48.708;9.290;2022-07-01T00:19:23;97859.91;;;9.18;54.33
43741;BME280;29352;48.708;9.290;2022-07-01T00:21:51;97863.91;;;10.11;52.58
43741;BME280;29352;48.708;9.290;2022-07-01T00:24:17;97866.59;;;10.21;52.82
43741;BME280;29352;48.708;9.290;2022-07-01T00:26:43;97856.03;;;9.50;54.28
43741;BME280;29352;48.708;9.290;2022-07-01T00:29:08;97870.66;;;10.14;52.77
43741;BME280;29352;48.708;9.290;2022-07-01T00:31:34;97868.88;;;9.03;54.06
43741;BME280;29352;48.708;9.290;2022-07-01T00:34:01;97870.91;;;9.47;52.99
43741;BME280;29352;48.708;9.290;2022-07-01T00:36:28;97874.28;;;8.73;52.94
43741;BME280;29352;48.708;9.290;2022-07-01T00:38:54;97871.53;;;8.98;53.53
43741;BME280;29352;48.708;9.290;2022-07-01T00:41:19;97866.16;;;8.52;53.88
43741;BME280;29352;48.708;9.290;2022-07-01T00:43:45;97848.31;;;7.53;54.92
43741;BME280;29352;48.708;9.290;2022-07-01T00:46:11;97843.28;;;7.71;56.04
43741;BME280;29352;48.708;9.290;2022-07-01T00:48:38;97829.06;;;7.96;55.40
43741;BME280;29352;48.708;9.290;2022-07-01T00:51:04;97848.06;;;8.58;54.45
43741;BME280;29352;48.708;9.290;2022-07-01T00:53:31;97840.81;;;9.74;51.08
43741;BME280;29352;48.708;9.290;2022-07-01T00:55:57;97854.56;;;9.03;52.97
43741;BME280;29352;48.708;9.290;2022-07-01T00:58:26;97856.69;;;9.06;53.02
43741;BME280;29352;48.708;9.290;2022-07-01T01:00:54;97841.53;;;9.90;50.92
43741;BME280;29352;48.708;9.290;2022-07-01T01:03:21;97839.91;;;10.39;50.34
43741;BME280;29352;48.708;9.290;2022-07-01T01:05:48;97848.47;;;10.12;50.66
43741;BME280;29352;48.708;9.290;2022-07-01T01:08:15;97843.94;;;10.41;50.03
43741;BME280;29352;48.708;9.290;2022-07-01T01:10:42;97843.38;;;10.78;48.92
43741;BME280;29352;48.708;9.290;2022-07-01T01:13:08;97836.81;;;10.11;50.29
43741;BME280;29352;48.708;9.290;2022-07-01T01:15:35;97830.53;;;10.55;49.54
43741;BME280;29352;48.708;9.290;2022-07-01T01:18:03;97831.06;;;10.28;50.37
43741;BME280;29352;48.708;9.290;2022-07-01T01:20:36;97822.91;;;10.28;50.63
43741;BME280;29352;48.708;9.290;2022-07-01T01:23:02;97820.19;;;8.32;54.21
43741;BME280;29352;48.708;9.290;2022-07-01T01:25:31;97799.66;;;9.77;51.90
43741;BME280;29352;48.708;9.290;2022-07-01T01:27:57;97800.47;;;8.06;55.34
43741;BME280;29352;48.708;9.290;2022-07-01T01:30:23;97794.81;;;8.53;54.69
43741;BME280;29352;48.708;9.290;2022-07-01T01:32:49;97778.03;;;9.72;52.03
43741;BME280;29352;48.708;9.290;2022-07-01T01:35:15;97778.47;;;9.90;51.42
43741;BME280;29352;48.708;9.290;2022-07-01T01:37:41;97766.78;;;9.45;52.38
43741;BME280;29352;48.708;9.290;2022-07-01T01:40:07;97764.25;;;8.83;53.01
43741;BME280;29352;48.708;9.290;2022-07-01T01:42:34;97753.72;;;9.57;52.05
43741;BME280;29352;48.708;9.290;2022-07-01T01:45:01;97759.81;;;9.23;52.80
43741;BME280;29352;48.708;9.290;2022-07-01T01:47:26;97756.16;;;9.58;51.84
43741;BME280;29352;48.708;9.290;2022-07-01T01:49:52;97758.31;;;8.71;53.22
43741;BME280;29352;48.708;9.290;2022-07-01T01:52:17;97765.72;;;9.35;52.25
43741;BME280;29352;48.708;9.290;2022-07-01T01:54:43;97753.06;;;9.80;51.12
43741;BME280;29352;48.708;9.290;2022-07-01T01:57:09;97759.41;;;8.75;52.23
43741;BME280;29352;48.708;9.290;2022-07-01T01:59:35;97753.97;;;8.90;52.61
43741;BME280;29352;48.708;9.290;2022-07-01T02:02:01;97750.22;;;8.66;52.43
43741;BME280;29352;48.708;9.290;2022-07-01T02:04:26;97752.41;;;8.13;54.07
43741;BME280;29352;48.708;9.290;2022-07-01T02:06:52;97738.22;;;9.13;51.52
43741;BME280;29352;48.708;9.290;2022-07-01T02:09:18;97733.19;;;8.76;53.20
43741;BME280;29352;48.708;9.290;2022-07-01T02:11:44;97734.19;;;9.05;52.09
43741;BME280;29352;48.708;9.290;2022-07-01T02:14:10;97725.31;;;8.89;51.24
43741;BME280;29352;48.708;9.290;2022-07-01T02:16:36;97724.00;;;9.47;51.71
43741;BME280;29352;48.708;9.290;2022-07-01T02:19:01;97732.44;;;8.55;52.88
43741;BME280;29352;48.708;9.290;2022-07-01T02:21:27;97716.38;;;9.54;51.57
43741;BME280;29352;48.708;9.290;2022-07-01T02:23:53;97728.44;;;9.27;51.75
43741;BME280;29352;48.708;9.290;2022-07-01T02:26:19;97735.84;;;9.06;51.78
43741;BME280;29352;48.708;9.290;2022-07-01T02:28:45;97732.84;;;9.08;51.99
43741;BME280;29352;48.708;9.290;2022-07-01T02:31:11;97742.97;;;9.42;50.98
43741;BME280;29352;48.708;9.290;2022-07-01T02:33:36;97740.88;;;9.23;51.30
43741;BME280;29352;48.708;9.290;2022-07-01T02:36:02;97758.28;;;9.07;51.34
43741;BME280;29352;48.708;9.290;2022-07-01T02:38:28;97775.84;;;8.94;51.86
43741;BME280;29352;48.708;9.290;2022-07-01T02:40:54;97777.78;;;8.73;52.57
43741;BME280;29352;48.708;9.290;2022-07-01T02:43:20;97777.09;;;9.37;51.61
43741;BME280;29352;48.708;9.290;2022-07-01T02:45:46;97771.47;;;9.83;50.06
43741;BME280;29352;48.708;9.290;2022-07-01T02:48:11;97767.16;;;10.51;49.10
43741;BME280;29352;48.708;9.290;2022-07-01T02:50:37;97768.97;;;9.32;50.96
43741;BME280;29352;48.708;9.290;2022-07-01T02:53:03;97781.56;;;8.67;51.89
43741;BME280;29352;48.708;9.290;2022-07-01T02:55:29;97775.59;;;8.80;52.44
43741;BME280;29352;48.708;9.290;2022-07-01T02:57:55;97778.03;;;9.72;51.16
43741;BME280;29352;48.708;9.290;2022-07-01T03:00:21;97773.69;;;9.71;50.48
43741;BME280;29352;48.708;9.290;2022-07-01T03:02:47;97781.91;;;10.40;49.30
43741;BME280;29352;48.708;9.290;2022-07-01T03:05:13;97796.44;;;8.64;52.69
43741;BME280;29352;48.708;9.290;2022-07-01T03:07:40;97788.56;;;8.94;52.42
43741;BME280;29352;48.708;9.290;2022-07-01T03:10:08;97789.59;;;9.83;50.07
43741;BME280;29352;48.708;9.290;2022-07-01T03:12:34;97802.97;;;9.54;51.91
43741;BME280;29352;48.708;9.290;2022-07-01T03:15:04;97804.56;;;9.70;50.92
43741;BME280;29352;48.708;9.290;2022-07-01T03:17:37;97810.09;;;9.34;51.15
43741;BME280;29352;48.708;9.290;2022-07-01T03:20:09;97808.81;;;9.17;51.56
43741;BME280;29352;48.708;9.290;2022-07-01T03:22:38;97812.94;;;9.74;50.27
43741;BME280;29352;48.708;9.290;2022-07-01T03:25:05;97816.56;;;10.03;50.96
43741;BME280;29352;48.708;9.290;2022-07-01T03:27:33;97830.31;;;9.52;51.32
43741;BME280;29352;48.708;9.290;2022-07-01T03:29:59;97845.53;;;9.38;52.04
43741;BME280;29352;48.708;9.290;2022-07-01T03:32:25;97849.66;;;9.05;53.12
43741;BME280;29352;48.708;9.290;2022-07-01T03:34:53;97841.31;;;8.65;52.40
43741;BME280;29352;48.708;9.290;2022-07-01T03:37:20;97840.25;;;8.51;52.98
43741;BME280;29352;48.708;9.290;2022-07-01T03:39:48;97832.38;;;8.60;52.10
43741;BME280;29352;48.708;9.290;2022-07-01T03:42:14;97843.72;;;8.47;52.39
43741;BME280;29352;48.708;9.290;2022-07-01T03:44:40;97852.38;;;8.43;53.25
43741;BME280;29352;48.708;9.290;2022-07-01T03:47:06;97840.91;;;9.44;50.40
43741;BME280;29352;48.708;9.290;2022-07-01T03:49:35;97861.31;;;8.49;52.71
43741;BME280;29352;48.708;9.290;2022-07-01T03:52:03;97872.56;;;8.15;52.44
43741;BME280;29352;48.708;9.290;2022-07-01T03:54:29;97858.19;;;7.89;53.45
43741;BME280;29352;48.708;9.290;2022-07-01T03:57:00;97864.53;;;8.46;53.11
43741;BME280;29352;48.708;9.290;2022-07-01T03:59:28;97868.28;;;9.32;51.14
43741;BME280;29352;48.708;9.290;2022-07-01T04:01:59;97890.75;;;9.17;52.10
43741;BME280;29352;48.708;9.290;2022-07-01T04:04:26;97899.97;;;9.01;52.00
43741;BME280;29352;48.708;9.290;2022-07-01T04:06:58;97913.72;;;9.30;51.71
43741;BME280;29352;48.708;9.290;2022-07-01T04:09:26;97923.75;;;9.34;51.04
43741;BME280;29352;48.708;9.290;2022-07-01T04:11:53;97927.47;;;9.64;51.04
43741;BME280;29352;48.708;9.290;2022-07-01T04:14:20;97933.44;;;9.61;51.18
43741;BME280;29352;48.708;9.290;2022-07-01T04:16:46;97931.53;;;9.46;51.36
43741;BME280;29352;48.708;9.290;2022-07-01T04:19:16;97929.38;;;9.64;51.19
43741;BME280;29352;48.708;9.290;2022-07-01T04:21:43;97940.00;;;9.14;51.96
43741;BME280;29352;48.708;9.290;2022-07-01T04:24:27;97936.13;;;9.51;51.51
43741;BME280;29352;48.708;9.290;2022-07-01T04:26:54;97952.06;;;9.57;51.95
43741;BME280;29352;48.708;9.290;2022-07-01T04:29:20;97949.44;;;9.27;52.27
43741;BME280;29352;48.708;9.290;2022-07-01T04:31:47;97952.34;;;8.49;52.93
43741;BME280;29352;48.708;9.290;2022-07-01T04:34:13;97945.09;;;7.91;53.43
43741;BME280;29352;48.708;9.290;2022-07-01T04:36:39;97949.66;;;8.59;52.50
43741;BME280;29352;48.708;9.290;2022-07-01T04:39:05;97947.25;;;8.78;52.03
43741;BME280;29352;48.708;9.290;2022-07-01T04:41:31;97951.84;;;8.62;52.55
43741;BME280;29352;48.708;9.290;2022-07-01T04:44:20;97951.00;;;8.56;53.04
43741;BME280;29352;48.708;9.290;2022-07-01T04:46:46;97945.88;;;8.60;52.90
43741;BME280;29352;48.708;9.290;2022-07-01T04:49:13;97941.56;;;8.84;52.61
43741;BME280;29352;48.708;9.290;2022-07-01T04:51:38;97939.19;;;7.94;54.24
43741;BME280;29352;48.708;9.290;2022-07-01T04:54:05;97940.53;;;7.92;54.02
43741;BME280;29352;48.708;9.290;2022-07-01T04:56:33;97943.94;;;8.40;53.48
43741;BME280;29352;48.708;9.290;2022-07-01T04:59:00;97942.91;;;8.56;52.51
43741;BME280;29352;48.708;9.290;2022-07-01T05:01:26;97951.63;;;9.04;52.05
43741;BME280;29352;48.708;9.290;2022-07-01T05:03:54;97943.63;;;8.31;53.45
43741;BME280;29352;48.708;9.290;2022-07-01T05:06:23;97950.28;;;7.98;54.13
43741;BME280;29352;48.708;9.290;2022-07-01T05:08:49;97956.00;;;8.12;53.67
43741;BME280;29352;48.708;9.290;2022-07-01T05:11:15;97952.94;;;9.43;50.84
43741;BME280;29352;48.708;9.290;2022-07-01T05:13:41;97971.63;;;9.03;52.34
43741;BME280;29352;48.708;9.290;2022-07-01T05:16:07;97964.81;;;9.47;50.95
43741;BME280;29352;48.708;9.290;2022-07-01T05:18:34;97969.66;;;9.75;50.62
43741;BME280;29352;48.708;9.290;2022-07-01T05:21:19;97962.66;;;9.69;50.38
43741;BME280;29352;48.708;9.290;2022-07-01T05:24:04;97966.19;;;9.49;51.66
43741;BME280;29352;48.708;9.290;2022-07-01T05:26:30;97967.94;;;8.31;53.49
43741;BME280;29352;48.708;9.290;2022-07-01T05:28:55;97965.91;;;8.69;52.95
43741;BME280;29352;48.708;9.290;2022-07-01T05:31:21;97951.03;;;8.66;53.42
43741;BME280;29352;48.708;9.290;2022-07-01T05:33:47;97947.75;;;8.44;53.80
43741;BME280;29352;48.708;9.290;2022-07-01T05:36:14;97950.19;;;8.40;53.54
43741;BME280;29352;48.708;9.290;2022-07-01T05:38:41;97959.31;;;8.34;53.55
43741;BME280;29352;48.708;9.290;2022-07-01T05:41:07;97956.63;;;8.34;53.28
43741;BME280;29352;48.708;9.290;2022-07-01T05:43:34;97962.97;;;9.11;52.29
43741;BME280;29352;48.708;9.290;2022-07-01T05:46:00;97965.41;;;9.13;51.92
43741;BME280;29352;48.708;9.290;2022-07-01T05:48:26;97965.38;;;9.33;51.62
43741;BME280;29352;48.708;9.290;2022-07-01T05:50:52;97962.69;;;8.82;53.16
43741;BME280;29352;48.708;9.290;2022-07-01T05:53:18;97963.94;;;7.76;54.96
43741;BME280;29352;48.708;9.290;2022-07-01T05:55:45;97965.94;;;8.89;53.19
43741;BME280;29352;48.708;9.290;2022-07-01T05:58:11;97961.03;;;8.91;53.15
43741;BME280;29352;48.708;9.290;2022-07-01T06:00:41;97948.88;;;8.68;53.37
43741;BME280;29352;48.708;9.290;2022-07-01T06:03:12;97943.75;;;8.77;53.01
43741;BME280;29352;48.708;9.290;2022-07-01T06:05:39;97946.94;;;8.54;53.79
43741;BME280;29352;48.708;9.290;2022-07-01T06:08:06;97941.56;;;8.74;53.43
43741;BME280;29352;48.708;9.290;2022-07-01T06:10:33;97957.00;;;8.79;53.54
43741;BME280;29352;48.708;9.290;2022-07-01T06:13:00;97968.59;;;8.74;53.68
43741;BME280;29352;48.708;9.290;2022-07-01T06:15:26;97987.84;;;9.39;51.55
43741;BME280;29352;48.708;9.290;2022-07-01T06:17:52;97985.38;;;9.48;52.15
43741;BME280;29352;48.708;9.290;2022-07-01T06:20:18;97984.78;;;9.97;50.77
43741;BME280;29352;48.708;9.290;2022-07-01T06:22:44;97995.09;;;9.84;50.62
43741;BME280;29352;48.708;9.290;2022-07-01T06:25:10;97991.19;;;10.16;49.69
43741;BME280;29352;48.708;9.290;2022-07-01T06:27:40;97992.16;;;10.41;50.00
43741;BME280;29352;48.708;9.290;2022-07-01T06:30:08;97989.16;;;9.82;50.55
43741;BME280;29352;48.708;9.290;2022-07-01T06:32:35;97997.72;;;8.41;53.23
43741;BME280;29352;48.708;9.290;2022-07-01T06:35:01;97996.50;;;9.51;51.21
43741;BME280;29352;48.708;9.290;2022-07-01T06:37:27;97991.63;;;9.69;50.93
43741;BME280;29352;48.708;9.290;2022-07-01T06:39:53;97985.34;;;9.83;50.93
43741;BME280;29352;48.708;9.290;2022-07-01T06:42:19;97987.19;;;9.98;51.44
43741;BME280;29352;48.708;9.290;2022-07-01T06:44:44;97977.50;;;10.47;50.93
43741;BME280;29352;48.708;9.290;2022-07-01T06:47:10;97984.28;;;9.79;51.48
43741;BME280;29352;48.708;9.290;2022-07-01T06:49:36;97994.88;;;9.40;52.57
43741;BME280;29352;48.708;9.290;2022-07-01T06:52:03;97996.59;;;10.26;51.40
43741;BME280;29352;48.708;9.290;2022-07-01T06:54:29;98008.88;;;10.63;50.36
43741;BME280;29352;48.708;9.290;2022-07-01T06:56:54;98022.72;;;9.87;52.19
43741;BME280;29352;48.708;9.290;2022-07-01T06:59:20;98024.66;;;9.35;51.55
43741;BME280;29352;48.708;9.290;2022-07-01T07:01:47;98018.13;;;10.57;50.25
43741;BME280;29352;48.708;9.290;2022-07-01T07:04:14;98037.78;;;10.13;51.97
43741;BME280;29352;48.708;9.290;2022-07-01T07:06:40;98042.47;;;9.87;51.07
43741;BME280;29352;48.708;9.290;2022-07-01T07:09:06;98037.59;;;9.79;51.14
43741;BME280;29352;48.708;9.290;2022-07-01T07:11:31;98036.81;;;9.73;51.58
43741;BME280;29352;48.708;9.290;2022-07-01T07:13:57;98037.34;;;9.55;52.22
43741;BME280;29352;48.708;9.290;2022-07-01T07:16:23;98044.94;;;9.68;51.67
43741;BME280;29352;48.708;9.290;2022-07-01T07:18:49;98047.34;;;9.54;51.85
43741;BME280;29352;48.708;9.290;2022-07-01T07:21:16;98047.56;;;8.86;52.85
43741;BME280;29352;48.708;9.290;2022-07-01T07:23:42;98052.78;;;9.24;52.28
43741;BME280;29352;48.708;9.290;2022-07-01T07:26:09;98057.09;;;9.86;51.01
43741;BME280;29352;48.708;9.290;2022-07-01T07:28:35;98052.16;;;10.08;51.33
43741;BME280;29352;48.708;9.290;2022-07-01T07:31:00;98042.94;;;10.15;51.38
43741;BME280;29352;48.708;9.290;2022-07-01T07:33:26;98052.22;;;9.88;51.32
43741;BME280;29352;48.708;9.290;2022-07-01T07:35:52;98046.91;;;10.43;50.58
43741;BME280;29352;48.708;9.290;2022-07-01T07:38:19;98060.63;;;9.71;52.37
43741;BME280;29352;48.708;9.290;2022-07-01T07:40:45;98050.78;;;10.16;50.06
43741;BME280;29352;48.708;9.290;2022-07-01T07:43:11;98039.44;;;8.81;52.52
43741;BME280;29352;48.708;9.290;2022-07-01T07:45:37;98042.16;;;9.99;51.12
43741;BME280;29352;48.708;9.290;2022-07-01T07:48:02;98039.53;;;9.73;51.76
43741;BME280;29352;48.708;9.290;2022-07-01T07:50:29;98046.03;;;9.72;51.41
43741;BME280;29352;48.708;9.290;2022-07-01T07:52:56;98059.00;;;9.75;51.75
43741;BME280;29352;48.708;9.290;2022-07-01T07:55:21;98063.84;;;9.89;51.32
43741;BME280;29352;48.708;9.290;2022-07-01T07:57:47;98051.28;;;10.39;49.82
43741;BME280;29352;48.708;9.290;2022-07-01T08:00:13;98045.31;;;10.37;49.80
43741;BME280;29352;48.708;9.290;2022-07-01T08:02:40;98049.19;;;10.05;50.95
43741;BME280;29352;48.708;9.290;2022-07-01T08:05:08;98059.81;;;9.86;50.88
43741;BME280;29352;48.708;9.290;2022-07-01T08:07:36;98065.47;;;10.00;51.47
43741;BME280;29352;48.708;9.290;2022-07-01T08:10:08;98054.56;;;10.25;49.85
43741;BME280;29352;48.708;9.290;2022-07-01T08:12:35;98062.19;;;10.18;50.99
43741;BME280;29352;48.708;9.290;2022-07-01T08:15:02;98057.13;;;9.60;51.04
43741;BME280;29352;48.708;9.290;2022-07-01T08:17:28;98052.47;;;9.92;51.25
43741;BME280;29352;48.708;9.290;2022-07-01T08:19:54;98053.84;;;9.84;51.33
43741;BME280;29352;48.708;9.290;2022-07-01T08:22:20;98050.00;;;10.81;50.49
43741;BME280;29352;48.708;9.290;2022-07-01T08:24:45;98066.09;;;10.56;51.54
43741;BME280;29352;48.708;9.290;2022-07-01T08:27:11;98081.13;;;10.13;51.43
43741;BME280;29352;48.708;9.290;2022-07-01T08:29:38;98082.00;;;9.93;51.50
43741;BME280;29352;48.708;9.290;2022-07-01T08:32:06;98082.00;;;9.88;51.06
43741;BME280;29352;48.708;9.290;2022-07-01T08:34:32;98090.88;;;10.09;52.37
43741;BME280;29352;48.708;9.290;2022-07-01T08:36:58;98082.81;;;10.79;50.59
43741;BME280;29352;48.708;9.290;2022-07-01T08:39:24;98087.94;;;10.11;51.25
43741;BME280;29352;48.708;9.290;2022-07-01T08:41:49;98089.66;;;10.61;50.49
43741;BME280;29352;48.708;9.290;2022-07-01T08:44:15;98083.72;;;10.59;49.91
43741;BME280;29352;48.708;9.290;2022-07-01T08:46:41;98090.38;;;10.02;51.69
43741;BME280;29352;48.708;9.290;2022-07-01T08:49:06;98088.97;;;10.35;49.71
43741;BME280;29352;48.708;9.290;2022-07-01T08:51:32;98097.88;;;10.41;51.23
43741;BME280;29352;48.708;9.290;2022-07-01T08:53:59;98095.44;;;10.34;50.27
43741;BME280;29352;48.708;9.290;2022-07-01T08:56:25;98104.38;;;10.45;50.39
43741;BME280;29352;48.708;9.290;2022-07-01T08:59:09;98110.19;;;10.83;49.82
43741;BME280;29352;48.708;9.290;2022-07-01T09:01:46;98107.09;;;10.40;50.28
43741;BME280;29352;48.708;9.290;2022-07-01T09:04:19;98102.00;;;10.93;50.09
43741;BME280;29352;48.708;9.290;2022-07-01T09:06:47;98100.91;;;10.08;52.54
43741;BME280;29352;48.708;9.290;2022-07-01T09:09:19;98098.00;;;9.69;52.25
43741;BME280;29352;48.708;9.290;2022-07-01T09:11:55;98100.81;;;10.49;51.26
43741;BME280;29352;48.708;9.290;2022-07-01T09:14:22;98112.38;;;10.81;50.55
43741;BME280;29352;48.708;9.290;2022-07-01T09:16:54;98107.41;;;10.23;51.56
43741;BME280;29352;48.708;9.290;2022-07-01T09:19:26;98106.59;;;10.22;51.06
43741;BME280;29352;48.708;9.290;2022-07-01T09:21:58;98100.13;;;10.08;51.73
43741;BME280;29352;48.708;9.290;2022-07-01T09:24:43;98080.66;;;9.24;53.36
43741;BME280;29352;48.708;9.290;2022-07-01T09:27:14;98091.41;;;10.16;51.55
43741;BME280;29352;48.708;9.290;2022-07-01T09:29:51;98107.13;;;10.35;51.65
43741;BME280;29352;48.708;9.290;2022-07-01T09:32:20;98122.88;;;9.97;51.66
43741;BME280;29352;48.708;9.290;2022-07-01T09:34:51;98133.72;;;9.87;51.98
43741;BME280;29352;48.708;9.290;2022-07-01T09:37:22;98144.56;;;9.66;51.41
43741;BME280;29352;48.708;9.290;2022-07-01T09:39:55;98141.84;;;9.87;51.42
43741;BME280;29352;48.708;9.290;2022-07-01T09:42:24;98130.44;;;10.20;51.12
43741;BME280;29352;48.708;9.290;2022-07-01T09:45:03;98109.03;;;10.08;50.70
43741;BME280;29352;48.708;9.290;2022-07-01T09:47:34;98090.91;;;9.58;51.79
43741;BME280;29352;48.708;9.290;2022-07-01T09:50:03;98086.03;;;10.11;50.73
43741;BME280;29352;48.708;9.290;2022-07-01T09:52:29;98100.94;;;9.47;52.25
43741;BME280;29352;48.708;9.290;2022-07-01T09:54:55;98098.81;;;9.70;51.12
43741;BME280;29352;48.708;9.290;2022-07-01T09:57:22;98101.75;;;9.94;51.37
43741;BME280;29352;48.708;9.290;2022-07-01T09:59:51;98113.91;;;10.32;50.61
43741;BME280;29352;48.708;9.290;2022-07-01T10:02:21;98113.13;;;10.21;50.31
43741;BME280;29352;48.708;9.290;2022-07-01T10:13:02;98133.38;;;10.39;50.65
43741;BME280;29352;48.708;9.290;2022-07-01T10:15:29;98140.19;;;10.11;51.40
43741;BME280;29352;48.708;9.290;2022-07-01T10:17:56;98131.69;;;10.59;50.20
43741;BME280;29352;48.708;9.290;2022-07-01T10:20:30;98133.69;;;9.51;51.45
43741;BME280;29352;48.708;9.290;2022-07-01T10:23:14;98136.41;;;10.17;50.45
43741;BME280;29352;48.708;9.290;2022-07-01T10:25:44;98128.81;;;10.09;52.71
43741;BME280;29352;48.708;9.290;2022-07-01T10:34:00;98152.94;;;10.00;51.94
43741;BME280;29352;48.708;9.290;2022-07-01T10:36:33;98152.16;;;9.90;52.33
43741;BME280;29352;48.708;9.290;2022-07-01T10:41:27;98153.44;;;9.46;53.88
43741;BME280;29352;48.708;9.290;2022-07-01T10:43:55;98171.59;;;10.12;52.57
43741;BME280;29352;48.708;9.290;2022-07-01T10:46:40;98172.16;;;9.78;51.44
43741;BME280;29352;48.708;9.290;2022-07-01T10:49:13;98166.13;;;11.28;51.01
43741;BME280;29352;48.708;9.290;2022-07-01T10:54:48;98193.28;;;10.32;51.89
43741;BME280;29352;48.708;9.290;2022-07-01T10:57:21;98185.34;;;11.37;50.81
43741;BME280;29352;48.708;9.290;2022-07-01T11:07:28;98176.94;;;11.33;50.36
43741;BME280;29352;48.708;9.290;2022-07-01T11:09:55;98171.22;;;11.35;49.29
43741;BME280;29352;48.708;9.290;2022-07-01T11:12:23;98175.97;;;11.98;48.03
43741;BME280;29352;48.708;9.290;2022-07-01T11:14:50;98167.88;;;12.22;48.31
43741;BME280;29352;48.708;9.290;2022-07-01T11:17:17;98173.31;;;11.48;47.63
43741;BME280;29352;48.708;9.290;2022-07-01T11:19:55;98170.63;;;12.70;46.33
43741;BME280;29352;48.708;9.290;2022-07-01T11:22:31;98163.41;;;11.67;47.32
43741;BME280;29352;48.708;9.290;2022-07-01T11:25:01;98183.63;;;12.73;46.17
43741;BME280;29352;48.708;9.290;2022-07-01T11:27:33;98181.44;;;12.75;47.16
43741;BME280;29352;48.708;9.290;2022-07-01T11:30:02;98175.97;;;13.23;45.58
43741;BME280;29352;48.708;9.290;2022-07-01T11:32:39;98173.97;;;13.28;44.16
43741;BME280;29352;48.708;9.290;2022-07-01T11:35:08;98177.69;;;12.71;43.80
43741;BME280;29352;48.708;9.290;2022-07-01T11:41:06;98181.63;;;11.17;47.43
43741;BME280;29352;48.708;9.290;2022-07-01T11:43:38;98181.28;;;12.37;46.56
43741;BME280;29352;48.708;9.290;2022-07-01T11:46:07;98179.09;;;12.39;46.56
43741;BME280;29352;48.708;9.290;2022-07-01T11:48:37;98180.66;;;12.74;45.23
43741;BME280;29352;48.708;9.290;2022-07-01T11:51:15;98176.84;;;12.94;44.43
43741;BME280;29352;48.708;9.290;2022-07-01T11:53:45;98178.97;;;13.78;43.38
43741;BME280;29352;48.708;9.290;2022-07-01T11:56:14;98179.19;;;13.25;44.68
43741;BME280;29352;48.708;9.290;2022-07-01T11:58:46;98177.53;;;12.04;46.70
43741;BME280;29352;48.708;9.290;2022-07-01T12:03:59;98185.75;;;13.05;43.81
43741;BME280;29352;48.708;9.290;2022-07-01T12:06:28;98191.06;;;12.43;45.55
43741;BME280;29352;48.708;9.290;2022-07-01T12:08:56;98178.28;;;12.67;44.26
43741;BME280;29352;48.708;9.290;2022-07-01T12:11:24;98174.50;;;13.49;42.83
43741;BME280;29352;48.708;9.290;2022-07-01T12:13:52;98164.34;;;13.55;43.22
43741;BME280;29352;48.708;9.290;2022-07-01T12:16:19;98170.22;;;13.62;44.06
43741;BME280;29352;48.708;9.290;2022-07-01T12:18:55;98176.59;;;12.96;44.05
43741;BME280;29352;48.708;9.290;2022-07-01T12:21:24;98182.97;;;9.68;49.38
43741;BME280;29352;48.708;9.290;2022-07-01T12:24:12;98187.25;;;10.66;49.61
43741;BME280;29352;48.708;9.290;2022-07-01T12:29:16;98188.56;;;9.21;51.60
43741;BME280;29352;48.708;9.290;2022-07-01T12:31:44;98183.44;;;10.77;48.78
43741;BME280;29352;48.708;9.290;2022-07-01T12:34:19;98187.59;;;9.98;49.05
43741;BME280;29352;48.708;9.290;2022-07-01T12:36:50;98191.94;;;10.04;50.06
43741;BME280;29352;48.708;9.290;2022-07-01T12:39:16;98186.69;;;12.13;45.33
43741;BME280;29352;48.708;9.290;2022-07-01T12:41:49;98174.06;;;12.56;44.83
43741;BME280;29352;48.708;9.290;2022-07-01T12:44:23;98175.41;;;11.12;47.19
43741;BME280;29352;48.708;9.290;2022-07-01T12:46:50;98172.34;;;11.29;46.85
43741;BME280;29352;48.708;9.290;2022-07-01T12:49:24;98171.72;;;12.92;44.75
43741;BME280;29352;48.708;9.290;2022-07-01T12:51:52;98168.38;;;11.94;45.71
43741;BME280;29352;48.708;9.290;2022-07-01T12:54:29;98173.44;;;12.59;44.96
43741;BME280;29352;48.708;9.290;2022-07-01T12:56:57;98176.44;;;11.21;47.89
43741;BME280;29352;48.708;9.290;2022-07-01T12:59:23;98174.97;;;10.89;47.02
43741;BME280;29352;48.708;9.290;2022-07-01T13:01:49;98169.09;;;11.71;47.27
43741;BME280;29352;48.708;9.290;2022-07-01T13:04:27;98170.16;;;13.48;43.33
43741;BME280;29352;48.708;9.290;2022-07-01T13:06:53;98170.88;;;13.35;44.94
43741;BME280;29352;48.708;9.290;2022-07-01T13:09:19;98178.66;;;10.13;47.98
43741;BME280;29352;48.708;9.290;2022-07-01T13:11:46;98175.00;;;12.12;46.36
43741;BME280;29352;48.708;9.290;2022-07-01T13:14:12;98176.47;;;10.10;49.26
43741;BME280;29352;48.708;9.290;2022-07-01T13:16:37;98181.91;;;10.36;47.53
43741;BME280;29352;48.708;9.290;2022-07-01T13:19:03;98166.66;;;13.43;43.84
43741;BME280;29352;48.708;9.290;2022-07-01T13:21:29;98172.41;;;13.03;45.48
43741;BME280;29352;48.708;9.290;2022-07-01T13:23:55;98180.81;;;12.30;48.28
43741;BME280;29352;48.708;9.290;2022-07-01T13:26:21;98172.63;;;13.50;43.88
43741;BME280;29352;48.708;9.290;2022-07-01T13:28:47;98172.50;;;13.74;44.50
43741;BME280;29352;48.708;9.290;2022-07-01T13:31:13;98174.38;;;12.20;46.17
43741;BME280;29352;48.708;9.290;2022-07-01T13:33:39;98173.84;;;14.09;43.92
43741;BME280;29352;48.708;9.290;2022-07-01T13:36:05;98191.16;;;11.10;48.07
43741;BME280;29352;48.708;9.290;2022-07-01T13:38:31;98187.59;;;12.61;44.55
43741;BME280;29352;48.708;9.290;2022-07-01T13:40:57;98181.91;;;12.82;43.87
43741;BME280;29352;48.708;9.290;2022-07-01T13:43:22;98193.28;;;10.43;47.84
43741;BME280;29352;48.708;9.290;2022-07-01T13:45:48;98195.78;;;11.09;47.28
43741;BME280;29352;48.708;9.290;2022-07-01T13:48:14;98188.03;;;12.68;44.71